createdAt,value
2022-09-11T00:02:48.988Z,68.60
2022-09-11T00:05:51.527Z,68.60
2022-09-11T00:08:59.014Z,68.58
2022-09-11T00:12:00.505Z,68.57
2022-09-11T00:15:02.073Z,68.59
2022-09-11T00:18:05.678Z,68.63
2022-09-11T00:21:07.531Z,68.72
2022-09-11T00:24:09.444Z,68.74
2022-09-11T00:27:10.923Z,68.65
2022-09-11T00:30:13.609Z,68.71
2022-09-11T00:33:15.581Z,68.66
2022-09-11T00:36:23.747Z,68.75
2022-09-11T00:39:25.256Z,68.70
2022-09-11T00:42:26.743Z,68.60
2022-09-11T00:45:28.391Z,68.64
2022-09-11T00:48:33.462Z,68.68
2022-09-11T00:51:37.232Z,68.64
2022-09-11T00:54:55.800Z,68.64
2022-09-11T00:58:15.952Z,68.56
2022-09-11T01:01:17.564Z,68.49
2022-09-11T01:04:20.534Z,68.51
2022-09-11T01:07:25.270Z,68.57
2022-09-11T01:10:42.552Z,68.57
2022-09-11T01:14:02.706Z,68.66
2022-09-11T01:17:17.502Z,68.62
2022-09-11T01:20:25.759Z,68.42
2022-09-11T01:23:44.022Z,68.43
2022-09-11T01:27:11.320Z,68.45
2022-09-11T01:30:17.599Z,68.41
2022-09-11T01:33:31.543Z,68.35
2022-09-11T01:36:40.419Z,68.27
2022-09-11T01:39:56.149Z,68.22
2022-09-11T01:43:08.318Z,68.15
2022-09-11T01:46:15.862Z,68.18
2022-09-11T01:49:55.465Z,68.25
2022-09-11T01:53:02.543Z,68.36
2022-09-11T01:56:21.031Z,68.36
2022-09-11T01:59:29.232Z,68.50
2022-09-11T02:02:39.333Z,68.51
2022-09-11T02:05:47.012Z,68.46
2022-09-11T02:08:55.716Z,68.46
2022-09-11T02:12:02.419Z,68.63
2022-09-11T02:15:05.152Z,68.55
2022-09-11T02:18:17.487Z,68.68
2022-09-11T02:21:18.896Z,68.61
2022-09-11T02:24:22.159Z,68.66
2022-09-11T02:27:26.703Z,68.75
2022-09-11T02:30:29.722Z,68.71
2022-09-11T02:33:35.343Z,68.63
2022-09-11T02:36:54.005Z,68.81
2022-09-11T02:40:08.073Z,68.74
2022-09-11T02:43:31.969Z,68.85
2022-09-11T02:46:58.984Z,68.91
2022-09-11T02:50:16.773Z,68.99
2022-09-11T02:53:49.220Z,69.16
2022-09-11T02:57:21.474Z,69.22
2022-09-11T03:00:23.062Z,69.26
2022-09-11T03:03:24.558Z,69.28
2022-09-11T03:06:27.502Z,69.28
2022-09-11T03:09:29.019Z,69.28
2022-09-11T03:12:35.886Z,69.29
2022-09-11T03:15:37.549Z,69.27
2022-09-11T03:18:39.371Z,69.31
2022-09-11T03:21:42.280Z,69.34
2022-09-11T03:24:44.459Z,69.33
2022-09-11T03:27:46.604Z,69.45
2022-09-11T03:30:49.344Z,69.45
2022-09-11T03:33:51.705Z,69.59
2022-09-11T03:36:53.379Z,69.56
2022-09-11T03:39:55.245Z,69.62
2022-09-11T03:42:56.789Z,69.58
2022-09-11T03:45:59.877Z,69.65
2022-09-11T03:49:01.774Z,69.63
2022-09-11T03:52:04.517Z,69.46
2022-09-11T03:55:06.878Z,69.66
2022-09-11T03:58:09.073Z,69.66
2022-09-11T04:01:13.584Z,69.77
2022-09-11T04:04:16.648Z,69.67
2022-09-11T04:07:18.622Z,69.65
2022-09-11T04:10:21.067Z,69.71
2022-09-11T04:13:28.081Z,69.69
2022-09-11T04:16:32.297Z,69.75
2022-09-11T04:19:34.959Z,69.67
2022-09-11T04:22:37.426Z,69.76
2022-09-11T04:25:38.952Z,69.75
2022-09-11T04:28:42.520Z,69.68
2022-09-11T04:31:45.678Z,69.77
2022-09-11T04:34:48.774Z,69.77
2022-09-11T04:37:52.982Z,69.90
2022-09-11T04:40:59.047Z,69.86
2022-09-11T04:44:04.844Z,69.91
2022-09-11T04:47:07.242Z,69.84
2022-09-11T04:50:09.265Z,69.83
2022-09-11T04:53:12.909Z,69.81
2022-09-11T04:56:16.241Z,69.86
2022-09-11T04:59:21.878Z,69.84
2022-09-11T05:02:28.336Z,69.97
2022-09-11T05:05:30.036Z,69.91
2022-09-11T05:08:32.958Z,69.94
2022-09-11T05:11:40.388Z,69.97
2022-09-11T05:14:43.543Z,70.04
2022-09-11T05:17:47.733Z,70.02
2022-09-11T05:21:01.796Z,70.07
2022-09-11T05:24:03.875Z,70.10
2022-09-11T05:27:07.540Z,70.12
2022-09-11T05:30:10.044Z,70.27
2022-09-11T05:33:13.551Z,70.29
2022-09-11T05:36:17.302Z,70.30
2022-09-11T05:39:19.043Z,70.29
2022-09-11T05:42:21.697Z,70.28
2022-09-11T05:45:26.183Z,70.34
2022-09-11T05:48:28.825Z,70.38
2022-09-11T05:51:35.035Z,70.39
2022-09-11T05:54:36.583Z,70.42
2022-09-11T05:57:38.641Z,70.45
2022-09-11T06:00:40.862Z,70.51
2022-09-11T06:03:42.864Z,70.51
2022-09-11T06:06:47.382Z,70.71
2022-09-11T06:09:48.912Z,70.53
2022-09-11T06:12:50.752Z,70.68
2022-09-11T06:15:52.396Z,70.70
2022-09-11T06:18:54.475Z,70.73
2022-09-11T06:21:56.269Z,70.80
2022-09-11T06:25:11.175Z,70.74
2022-09-11T06:28:12.720Z,70.76
2022-09-11T06:31:15.952Z,70.71
2022-09-11T06:34:19.147Z,70.82
2022-09-11T06:37:20.995Z,70.91
2022-09-11T06:40:24.526Z,70.83
2022-09-11T06:43:27.258Z,70.91
2022-09-11T06:46:29.533Z,70.96
2022-09-11T06:49:31.603Z,71.09
2022-09-11T06:52:52.441Z,71.06
2022-09-11T06:56:04.883Z,71.10
2022-09-11T06:59:06.680Z,70.98
2022-09-11T07:02:09.455Z,71.05
2022-09-11T07:05:11.223Z,71.17
2022-09-11T07:08:13.693Z,71.16
2022-09-11T07:11:17.145Z,71.14
2022-09-11T07:14:20.794Z,71.14
2022-09-11T07:17:23.758Z,71.09
2022-09-11T07:20:26.473Z,71.14
2022-09-11T07:23:28.492Z,71.25
2022-09-11T07:26:31.192Z,71.26
2022-09-11T07:29:36.658Z,71.30
2022-09-11T07:32:38.863Z,71.40
2022-09-11T07:35:40.616Z,71.33
2022-09-11T07:38:44.276Z,71.79
2022-09-11T07:41:46.947Z,71.56
2022-09-11T07:44:51.322Z,71.46
2022-09-11T07:47:53.158Z,71.46
2022-09-11T07:50:57.226Z,71.52
2022-09-11T07:53:59.471Z,71.51
2022-09-11T07:57:02.412Z,71.44
2022-09-11T08:00:06.051Z,71.57
2022-09-11T08:03:21.545Z,71.55
2022-09-11T08:06:26.598Z,71.65
2022-09-11T08:09:28.605Z,71.68
2022-09-11T08:12:34.071Z,71.72
2022-09-11T08:15:35.596Z,71.60
2022-09-11T08:18:37.325Z,71.77
2022-09-11T08:21:39.140Z,71.71
2022-09-11T08:24:40.765Z,71.62
2022-09-11T08:27:42.479Z,71.68
2022-09-11T08:30:44.612Z,71.66
2022-09-11T08:33:46.489Z,71.63
2022-09-11T08:36:50.302Z,71.59
2022-09-11T08:39:52.057Z,71.57
2022-09-11T08:42:56.582Z,71.64
2022-09-11T08:46:04.503Z,71.51
2022-09-11T08:49:19.003Z,71.38
2022-09-11T08:52:21.091Z,71.18
2022-09-11T08:55:32.404Z,71.29
2022-09-11T08:59:31.134Z,71.30
2022-09-11T09:03:07.990Z,71.15
2022-09-11T09:06:28.661Z,71.21
2022-09-11T09:10:05.522Z,71.08
2022-09-11T09:13:25.328Z,71.12
2022-09-11T09:16:57.341Z,71.32
2022-09-11T09:20:03.504Z,71.23
2022-09-11T09:23:12.225Z,71.25
2022-09-11T09:26:18.257Z,71.21
2022-09-11T09:29:25.050Z,71.17
2022-09-11T09:32:42.929Z,71.14
2022-09-11T09:35:44.940Z,71.03
2022-09-11T09:38:49.332Z,70.87
2022-09-11T09:42:00.646Z,70.82
2022-09-11T09:45:14.783Z,70.62
2022-09-11T09:48:16.350Z,70.64
2022-09-11T09:51:17.942Z,70.72
2022-09-11T09:54:23.464Z,70.75
2022-09-11T09:57:29.691Z,70.66
2022-09-11T10:00:32.301Z,70.58
2022-09-11T10:03:33.833Z,70.58
2022-09-11T10:06:35.333Z,70.57
2022-09-11T10:09:46.148Z,70.53
2022-09-11T10:12:48.346Z,70.50
2022-09-11T10:15:52.689Z,70.61
2022-09-11T10:18:55.703Z,70.63
2022-09-11T10:22:22.433Z,70.56
2022-09-11T10:25:29.463Z,70.55
2022-09-11T10:28:33.762Z,70.43
2022-09-11T10:31:39.364Z,70.42
2022-09-11T10:34:41.389Z,70.33
2022-09-11T10:37:43.168Z,70.11
2022-09-11T10:41:20.917Z,69.88
2022-09-11T10:44:23.598Z,69.69
2022-09-11T10:47:28.333Z,69.72
2022-09-11T10:50:30.358Z,69.62
2022-09-11T10:53:38.882Z,69.57
2022-09-11T10:56:58.082Z,69.61
2022-09-11T11:00:14.938Z,69.52
2022-09-11T11:03:20.912Z,69.20
2022-09-11T11:06:37.636Z,68.85
2022-09-11T11:09:56.119Z,68.41
2022-09-11T11:13:20.535Z,68.28
2022-09-11T11:16:30.770Z,67.95
2022-09-11T11:19:50.847Z,67.71
2022-09-11T11:23:20.715Z,67.43
2022-09-11T11:26:50.134Z,66.92
2022-09-11T11:30:14.702Z,66.69
2022-09-11T11:33:33.225Z,66.33
2022-09-11T11:36:50.836Z,66.40
2022-09-11T11:40:17.687Z,66.10
2022-09-11T11:43:30.839Z,65.88
2022-09-11T11:46:45.889Z,65.56
2022-09-11T11:50:10.907Z,65.47
2022-09-11T11:53:30.700Z,65.23
2022-09-11T11:56:48.883Z,65.07
2022-09-11T12:00:00.895Z,64.68
2022-09-11T12:03:31.606Z,64.47
2022-09-11T12:06:34.654Z,64.36
2022-09-11T12:09:36.268Z,64.37
2022-09-11T12:12:47.939Z,64.38
2022-09-11T12:16:11.579Z,64.48
2022-09-11T12:19:20.541Z,64.56
2022-09-11T12:22:34.013Z,64.41
2022-09-11T12:25:49.298Z,64.16
2022-09-11T12:29:11.090Z,64.03
2022-09-11T12:32:15.857Z,63.96
2022-09-11T12:35:33.714Z,64.14
2022-09-11T12:38:44.776Z,64.17
2022-09-11T12:41:46.380Z,64.20
2022-09-11T12:44:47.840Z,64.26
2022-09-11T12:47:50.264Z,64.14
2022-09-11T12:50:56.406Z,64.08
2022-09-11T12:54:04.310Z,64.11
2022-09-11T12:57:14.725Z,64.08
2022-09-11T13:00:38.634Z,64.24
2022-09-11T13:03:55.541Z,64.34
2022-09-11T13:07:04.732Z,64.36
2022-09-11T13:10:09.934Z,64.39
2022-09-11T13:13:36.901Z,64.47
2022-09-11T13:16:44.043Z,64.56
2022-09-11T13:19:45.656Z,64.70
2022-09-11T13:22:52.793Z,64.68
2022-09-11T13:26:01.148Z,64.82
2022-09-11T13:29:02.901Z,64.78
2022-09-11T13:32:10.465Z,64.67
2022-09-11T13:35:16.441Z,64.52
2022-09-11T13:38:22.704Z,64.53
2022-09-11T13:41:29.406Z,64.52
2022-09-11T13:44:42.105Z,64.65
2022-09-11T13:47:44.037Z,64.72
2022-09-11T13:50:47.773Z,64.77
2022-09-11T13:54:05.420Z,64.78
2022-09-11T13:57:16.757Z,64.67
2022-09-11T14:00:39.879Z,64.65
2022-09-11T14:03:45.459Z,64.70
2022-09-11T14:06:47.675Z,64.94
2022-09-11T14:10:21.720Z,65.03
2022-09-11T14:13:32.480Z,65.42
2022-09-11T14:16:49.344Z,65.61
2022-09-11T14:19:57.697Z,65.93
2022-09-11T14:23:05.428Z,66.17
2022-09-11T14:26:18.643Z,66.52
2022-09-11T14:29:30.364Z,66.74
2022-09-11T14:32:38.689Z,66.97
2022-09-11T14:35:44.506Z,67.12
2022-09-11T14:38:47.171Z,67.49
2022-09-11T14:41:49.380Z,67.66
2022-09-11T14:44:50.941Z,67.82
2022-09-11T14:47:52.838Z,68.00
2022-09-11T14:50:54.684Z,68.25
2022-09-11T14:53:56.799Z,68.30
2022-09-11T14:56:59.654Z,68.37
2022-09-11T15:00:01.605Z,68.44
2022-09-11T15:03:04.359Z,68.34
2022-09-11T15:06:13.602Z,68.45
2022-09-11T15:09:15.708Z,68.44
2022-09-11T15:12:18.203Z,68.43
2022-09-11T15:15:20.834Z,68.59
2022-09-11T15:18:23.157Z,68.68
2022-09-11T15:21:25.138Z,68.69
2022-09-11T15:24:29.314Z,68.75
2022-09-11T15:27:30.935Z,68.92
2022-09-11T15:30:33.611Z,68.86
2022-09-11T15:33:35.671Z,69.01
2022-09-11T15:36:37.989Z,69.00
2022-09-11T15:39:39.815Z,69.01
2022-09-11T15:42:41.507Z,69.14
2022-09-11T15:45:43.095Z,69.25
2022-09-11T15:48:47.641Z,69.30
2022-09-11T15:51:50.732Z,69.25
2022-09-11T15:54:53.759Z,69.31
2022-09-11T15:57:57.446Z,69.41
2022-09-11T16:01:00.635Z,69.52
2022-09-11T16:04:05.288Z,69.51
2022-09-11T16:07:06.942Z,69.50
2022-09-11T16:10:09.576Z,69.49
2022-09-11T16:13:11.336Z,69.45
2022-09-11T16:16:13.671Z,69.61
2022-09-11T16:19:17.101Z,69.55
2022-09-11T16:22:18.666Z,69.59
2022-09-11T16:25:20.476Z,69.52
2022-09-11T16:28:22.667Z,69.63
2022-09-11T16:31:24.178Z,69.58
2022-09-11T16:34:27.649Z,69.64
2022-09-11T16:37:33.405Z,69.65
2022-09-11T16:40:35.367Z,69.65
2022-09-11T16:43:38.104Z,69.69
2022-09-11T16:46:40.250Z,69.97
2022-09-11T16:50:05.873Z,69.81
2022-09-11T16:53:04.071Z,69.76
2022-09-11T16:56:10.872Z,69.68
2022-09-11T16:59:12.519Z,69.76
2022-09-11T17:02:14.100Z,69.68
2022-09-11T17:05:16.904Z,69.55
2022-09-11T17:08:18.556Z,69.53
2022-09-11T17:11:21.910Z,69.53
2022-09-11T17:14:23.596Z,69.40
2022-09-11T17:17:25.625Z,69.31
2022-09-11T17:20:27.141Z,69.35
2022-09-11T17:23:28.667Z,69.25
2022-09-11T17:26:31.304Z,69.29
2022-09-11T17:29:32.857Z,69.27
2022-09-11T17:32:34.333Z,69.30
2022-09-11T17:35:37.002Z,69.24
2022-09-11T17:38:39.464Z,69.23
2022-09-11T17:41:40.981Z,69.20
2022-09-11T17:44:42.532Z,69.15
2022-09-11T17:47:44.131Z,69.14
2022-09-11T17:50:46.770Z,69.14
2022-09-11T17:53:51.433Z,69.19
2022-09-11T17:56:55.103Z,69.27
2022-09-11T17:59:57.704Z,69.15
2022-09-11T18:02:59.257Z,69.22
2022-09-11T18:06:15.088Z,69.27
2022-09-11T18:09:18.931Z,69.24
2022-09-11T18:12:20.459Z,69.35
2022-09-11T18:15:22.029Z,69.34
2022-09-11T18:18:24.025Z,69.39
2022-09-11T18:21:26.407Z,69.37
2022-09-11T18:24:29.821Z,69.45
2022-09-11T18:27:31.848Z,69.43
2022-09-11T18:30:37.101Z,69.43
2022-09-11T18:33:38.815Z,69.50
2022-09-11T18:36:40.437Z,69.54
2022-09-11T18:39:42.370Z,69.51
2022-09-11T18:42:45.593Z,69.63
2022-09-11T18:45:47.300Z,69.61
2022-09-11T18:48:52.086Z,69.72
2022-09-11T18:51:53.753Z,69.70
2022-09-11T18:54:55.503Z,69.74
2022-09-11T18:58:00.149Z,69.76
2022-09-11T19:01:34.434Z,69.78
2022-09-11T19:04:36.074Z,69.74
2022-09-11T19:07:37.860Z,69.66
2022-09-11T19:10:39.310Z,69.67
2022-09-11T19:13:41.633Z,69.78
2022-09-11T19:16:43.368Z,69.68
2022-09-11T19:19:45.913Z,69.80
2022-09-11T19:22:47.925Z,69.76
2022-09-11T19:25:49.504Z,69.86
2022-09-11T19:28:51.530Z,69.96
2022-09-11T19:31:54.041Z,69.88
2022-09-11T19:34:55.590Z,69.93
2022-09-11T19:37:57.165Z,69.91
2022-09-11T19:41:00.435Z,69.83
2022-09-11T19:44:04.343Z,69.79
2022-09-11T19:47:06.065Z,69.77
2022-09-11T19:50:08.158Z,69.80
2022-09-11T19:53:09.629Z,69.78
2022-09-11T19:56:11.655Z,69.71
2022-09-11T19:59:13.724Z,69.83
2022-09-11T20:02:16.684Z,69.72
2022-09-11T20:05:19.259Z,69.78
2022-09-11T20:08:20.821Z,69.66
2022-09-11T20:11:24.784Z,69.70
2022-09-11T20:14:27.194Z,69.66
2022-09-11T20:17:29.224Z,69.66
2022-09-11T20:20:32.172Z,69.60
2022-09-11T20:23:35.014Z,69.60
2022-09-11T20:26:36.955Z,69.65
2022-09-11T20:29:41.086Z,69.64
2022-09-11T20:32:42.581Z,69.62
2022-09-11T20:35:44.357Z,69.65
2022-09-11T20:38:53.682Z,69.70
2022-09-11T20:42:00.561Z,69.70
2022-09-11T20:45:03.052Z,69.69
2022-09-11T20:48:04.605Z,69.73
2022-09-11T20:51:10.201Z,69.72
2022-09-11T20:54:15.033Z,69.76
2022-09-11T20:57:16.610Z,69.71
2022-09-11T21:00:18.149Z,69.74
2022-09-11T21:03:19.693Z,69.83
2022-09-11T21:06:26.015Z,69.68
2022-09-11T21:09:32.236Z,69.69
2022-09-11T21:12:34.180Z,69.69
2022-09-11T21:15:47.049Z,69.69
2022-09-11T21:18:50.175Z,69.69
2022-09-11T21:21:51.748Z,69.72
2022-09-11T21:24:54.349Z,69.73
2022-09-11T21:27:56.167Z,69.68
2022-09-11T21:30:58.420Z,69.76
2022-09-11T21:34:00.345Z,69.78
2022-09-11T21:37:01.914Z,69.75
2022-09-11T21:40:04.854Z,69.77
2022-09-11T21:43:07.294Z,69.81
2022-09-11T21:46:09.509Z,69.76
2022-09-11T21:49:12.405Z,69.78
2022-09-11T21:52:13.957Z,69.76
2022-09-11T21:55:15.834Z,69.81
2022-09-11T21:58:22.680Z,69.82
2022-09-11T22:01:25.917Z,69.87
2022-09-11T22:04:27.545Z,69.87
2022-09-11T22:07:29.685Z,69.96
2022-09-11T22:10:31.616Z,70.00
2022-09-11T22:13:36.595Z,70.04
2022-09-11T22:16:39.246Z,70.04
2022-09-11T22:19:45.184Z,70.17
2022-09-11T22:22:48.228Z,70.26
2022-09-11T22:26:05.002Z,70.35
2022-09-11T22:29:07.679Z,70.36
2022-09-11T22:32:09.541Z,70.42
2022-09-11T22:35:11.063Z,70.57
2022-09-11T22:38:12.697Z,70.56
2022-09-11T22:41:14.987Z,70.57
2022-09-11T22:44:16.784Z,70.53
2022-09-11T22:47:18.358Z,70.60
2022-09-11T22:50:19.930Z,70.60
2022-09-11T22:53:21.425Z,70.67
2022-09-11T22:56:23.526Z,70.67
2022-09-11T22:59:25.084Z,70.72
2022-09-11T23:02:26.866Z,70.72
2022-09-11T23:05:46.968Z,70.74
2022-09-11T23:08:49.121Z,70.74
2022-09-11T23:11:50.813Z,70.69
2022-09-11T23:14:52.713Z,70.71
2022-09-11T23:17:54.311Z,70.65
2022-09-11T23:20:57.415Z,70.61
2022-09-11T23:23:59.703Z,70.68
2022-09-11T23:27:01.101Z,70.66
2022-09-11T23:30:03.032Z,70.69
2022-09-11T23:33:04.721Z,70.77
2022-09-11T23:36:07.977Z,70.75
2022-09-11T23:39:09.511Z,70.74
2022-09-11T23:42:11.074Z,70.77
2022-09-11T23:45:12.566Z,70.83
2022-09-11T23:48:14.087Z,70.84
2022-09-11T23:51:16.162Z,70.79
2022-09-11T23:54:17.683Z,70.91
2022-09-11T23:57:19.229Z,70.92
